Accueil
METAR-TAF:

METAR-TAF

Aéroports :

Aéroport d'Anvers

Anvers, Belgique

latitude: 51-12N, longitude: 004-28E, altitude: 12 m

Observation

Le bulletin a été fait il y a 37 minutes, à 09:20 UTC
Vent 6 kt de sud-ouest, variant entre sud et ouest
Température 21°C
Humidité 56%
Pression 1013 hPa
Visibilité 10 km ou plus
pas de nuages en-dessous de 1500 mètres et pas de cumulonimbus.

METAR: EBAW 300920Z 23006KT 190V280 CAVOK 21/12 Q1013 NOSIG

Heure: 11:57 (09:57 UTC)

Prévision

Le bulletin a été fait il y a 1 heure et 47 minutes, à 08:10 UTC
Prévision valable du 30 à 09 UTC au 30 à 18 UTC
Vent 7 kt de sud-ouest
Visibilité 10 km ou plus
Nuages fragmentés à une hauteur de 2000 ft
Temporairement
du 30 à 14 UTC au 30 à 18 UTC
Visibilité: 4000 m
Nuages épars à une hauteur de 800 ft
Nuages fragmentés à une hauteur de 1200 ft
pluie, averses de pluie

TAF: EBAW 300810Z 3009/3018 22007KT 9999 BKN020 TEMPO 3014/3018 4000 RA SHRA SCT008 BKN012

Observations et prévisions météorologiques de plus de 4000 aéroports (messages METAR et TAF).

Les stations disponibles sont représentées par des disques jaunes et rouges sur la carte.

Passer la souris dessus pour voir le nom de la station.

Cliquer dessus pour voir les observations et prévisions météorologiques.

Pour changer de carte: cliquez sur les boutons verts avec une croix noire pour zoomer, sur le bouton vert avec un tiret pour effectuer un zoom arrière, ou sur les flèches vertes pour les cartes adjacentes.


METAR-TAF: